Impacts TAF Board INFO
FOR SITUATIONAL AWARENESS. NOT TO BE USED FOR FLIGHT PLANNING PURPOSES.
IDs:

KLGA - New York/La Guardia, NY, US

Issued at 2340 UTC 26 May 2018
Updated at 2344 UTC 26 May 2018
Potential Impact None Slight Moderate High
Time<<27/12Z 27/13Z 27/14Z 27/15Z 27/16Z 27/17Z 27/18Z 27/19Z 27/20Z 27/21Z 27/22Z 27/23Z 28/00Z>>
Type PRVL PRVL PRVL PRVL PRVL PRVL PRVL PRVL PRVL PRVL PRVL PRVL PRVL
VIS 3 3 3 2 2 2 2 2 2 2 2 2 2
CIG 9 9 9 9 9 9 9 9 9 9 9 9 7
Cover OVC OVC OVC OVC OVC OVC OVC OVC OVC OVC OVC OVC OVC
FltCat IFR IFR IFR IFR IFR IFR IFR IFR IFR IFR IFR IFR IFR
WX -RA -RA -RA RA RA RA RA RA RA RA RA RA BR VCSH
WDir 50 50 50 40 40 40 40 40 40 40 40 40 50
WSpd 12 12 12 13 13 13 13 13 13 13 13 13 9
WGst 18 18 18 19 19 19 19 19 19 19 19 19 --

Raw TAF
KLGA 262340Z 2700/2806 18010KT P6SM FEW060 SCT150 BKN250
  FM270200 22007KT P6SM BKN150
  FM270500 VRB05KT P6SM SCT050 OVC150
  FM270700 06005KT 5SM -SHRA FEW012 BKN050
  FM271000 05009KT 5SM -SHRA BKN012
  FM271200 05012G18KT 3SM -RA OVC009
  FM271500 04013G19KT 2SM RA OVC009
  FM280000 05009KT 2SM BR VCSH OVC007


METAR Board
Radar Display
Forecast Discussion

FOR SITUATIONAL AWARENESS. NOT TO BE USED FOR FLIGHT PLANNING PURPOSES.